Time;durP1;ratioP1;P1;durP2;ratioP2;P2;SDS_P1;SDS_P2;PMS_P1;PMS_P2;Temp;Humidity;BMP_temperature;BMP_pressure;BME280_temperature;BME280_humidity;BME280_pressure;Samples;Min_cycle;Max_cycle;Signal;HPM_P1;HPM_P2
2022/12/24 00:01:54;;;;;;;46.03;27.58;;;;;;;4.71;60.09;94794.78;5023331;28;20103;-77
2022/12/24 00:04:19;;;;;;;39.33;23.65;;;;;;;4.72;61.00;94809.19;5032147;28;20524;-78
2022/12/24 00:06:46;;;;;;;37.70;23.00;;;;;;;4.70;61.23;94812.31;5037788;28;20044;-77
2022/12/24 00:09:11;;;;;;;32.17;19.77;;;;;;;4.67;62.63;94809.63;5027165;28;20484;-79
2022/12/24 00:11:37;;;;;;;32.25;17.73;;;;;;;4.72;63.43;94809.97;5045610;28;20140;-78
2022/12/24 00:14:02;;;;;;;34.38;21.52;;;;;;;4.70;61.73;94808.78;5031923;28;20032;-78
2022/12/24 00:16:28;;;;;;;31.00;19.10;;;;;;;4.67;62.83;94813.09;5046873;28;20071;-76
2022/12/24 00:18:53;;;;;;;33.72;21.05;;;;;;;4.65;61.38;94804.56;5025057;28;20026;-78
2022/12/24 00:21:18;;;;;;;35.47;20.45;;;;;;;4.65;61.72;94807.31;5044339;28;20376;-78
2022/12/24 00:23:44;;;;;;;36.15;22.50;;;;;;;4.56;61.19;94809.69;5030909;28;20431;-77
2022/12/24 00:26:10;;;;;;;40.88;22.13;;;;;;;4.58;60.04;94810.06;5028185;28;20111;-76
2022/12/24 00:28:35;;;;;;;35.35;22.73;;;;;;;4.52;60.40;94803.50;5040243;28;20572;-78
2022/12/24 00:31:11;;;;;;;39.40;22.17;;;;;;;4.56;59.83;94809.69;5045235;28;20464;-78
2022/12/24 00:33:37;;;;;;;39.58;23.10;;;;;;;4.43;60.16;94803.97;5046905;28;20475;-77
2022/12/24 00:36:02;;;;;;;37.92;22.98;;;;;;;4.40;60.22;94801.25;5045139;28;20041;-78
2022/12/24 00:38:28;;;;;;;39.53;23.00;;;;;;;4.30;60.44;94802.09;5047168;28;20530;-76
2022/12/24 00:41:00;;;;;;;45.60;27.13;;;;;;;4.22;59.98;94801.38;5031400;28;20026;-77
2022/12/24 00:43:26;;;;;;;51.83;29.30;;;;;;;4.17;59.87;94804.53;5028532;28;20040;-76
2022/12/24 00:45:52;;;;;;;45.92;26.85;;;;;;;4.10;60.28;94801.84;5031653;28;20029;-78
2022/12/24 00:48:17;;;;;;;44.10;24.20;;;;;;;4.12;60.59;94823.97;5013729;28;20044;-77
2022/12/24 00:50:43;;;;;;;39.40;24.95;;;;;;;4.10;60.32;94820.91;5046092;28;20615;-78
2022/12/24 00:53:08;;;;;;;47.00;27.55;;;;;;;4.05;60.63;94815.88;5032369;28;20032;-78
2022/12/24 00:55:33;;;;;;;46.47;27.38;;;;;;;4.01;60.58;94810.44;5026413;28;20404;-76
2022/12/24 00:57:59;;;;;;;49.38;27.83;;;;;;;3.98;60.45;94812.03;5042004;28;20026;-78
2022/12/24 01:00:24;;;;;;;48.05;26.85;;;;;;;3.96;60.52;94813.59;5047329;28;20025;-76
2022/12/24 01:02:50;;;;;;;54.83;31.67;;;;;;;3.91;60.89;94822.94;5030784;28;20088;-76
2022/12/24 01:05:19;;;;;;;81.07;42.30;;;;;;;3.94;61.64;94808.53;5032798;28;20412;-77
2022/12/24 01:07:44;;;;;;;92.47;45.78;;;;;;;3.91;61.40;94819.44;5031222;28;20029;-77
2022/12/24 01:10:15;;;;;;;88.22;44.50;;;;;;;3.92;61.54;94821.75;5029220;28;20452;-77
2022/12/24 01:12:40;;;;;;;80.80;42.80;;;;;;;3.87;61.98;94818.69;5011308;28;20124;-77
2022/12/24 01:15:07;;;;;;;84.97;43.83;;;;;;;3.84;62.03;94830.34;5011466;28;20034;-77
2022/12/24 01:17:33;;;;;;;85.78;42.60;;;;;;;3.80;62.17;94826.88;5034723;28;20034;-77
2022/12/24 01:19:58;;;;;;;75.22;42.25;;;;;;;3.79;62.48;94820.69;5038407;28;20032;-77
2022/12/24 01:22:23;;;;;;;73.95;39.15;;;;;;;3.77;62.96;94812.13;5045095;28;20496;-77
2022/12/24 01:24:49;;;;;;;71.93;38.10;;;;;;;3.73;62.41;94809.44;5038552;28;20424;-78
2022/12/24 01:27:14;;;;;;;76.22;37.65;;;;;;;3.71;62.15;94794.66;5037349;28;20028;-77
2022/12/24 01:29:40;;;;;;;59.92;34.88;;;;;;;3.70;62.10;94807.50;5037697;28;20021;-76
2022/12/24 01:32:05;;;;;;;59.90;33.53;;;;;;;3.68;61.92;94811.78;5020320;28;20033;-78
2022/12/24 01:34:31;;;;;;;58.50;33.30;;;;;;;3.68;61.72;94811.78;5035526;28;20980;-77
2022/12/24 01:36:56;;;;;;;53.22;30.20;;;;;;;3.66;62.05;94814.88;5027165;28;20033;-78
2022/12/24 01:39:22;;;;;;;50.03;29.48;;;;;;;3.65;62.83;94818.78;5025409;28;20816;-77
2022/12/24 01:44:32;;;;;;;;;;;;;;;3.66;63.69;94814.09;5043601;28;20068;-77
2022/12/24 01:47:06;;;;;;;49.53;27.42;;;;;;;3.61;63.06;94806.38;5031941;28;20268;-78
2022/12/24 01:49:31;;;;;;;44.92;27.00;;;;;;;3.60;64.05;94796.66;5036829;28;20034;-76
2022/12/24 01:52:02;;;;;;;45.88;26.05;;;;;;;3.60;63.54;94819.19;5019684;28;20026;-75
2022/12/24 01:54:32;;;;;;;46.78;25.45;;;;;;;3.60;63.99;94815.69;5021450;28;20029;-78
2022/12/24 01:57:01;;;;;;;45.13;25.02;;;;;;;3.61;63.45;94811.81;5029056;28;20025;-77
2022/12/24 01:59:27;;;;;;;41.25;26.48;;;;;;;3.60;62.62;94804.81;5026718;28;20057;-77
2022/12/24 02:01:52;;;;;;;41.13;25.17;;;;;;;3.55;63.34;94797.06;5012305;28;20040;-77
2022/12/24 02:04:39;;;;;;;42.42;24.85;;;;;;;3.56;63.54;94799.41;5028897;28;20044;-77
2022/12/24 02:07:05;;;;;;;43.72;24.80;;;;;;;3.56;64.20;94793.97;5031859;28;20545;-77
2022/12/24 02:09:32;;;;;;;41.50;24.13;;;;;;;3.55;64.57;94791.63;5027252;28;20030;-77
2022/12/24 02:11:57;;;;;;;40.97;24.40;;;;;;;3.56;64.54;94796.69;5031250;28;20029;-78
2022/12/24 02:14:25;;;;;;;42.08;24.08;;;;;;;3.55;64.30;94797.06;5031794;28;20514;-77
2022/12/24 02:17:13;;;;;;;40.88;22.10;;;;;;;3.61;64.68;94806.38;5019563;28;20111;-76
2022/12/24 02:20:20;;;;;;;39.13;22.48;;;;;;;3.64;64.43;94805.59;5024959;28;20041;-78
2022/12/24 02:23:01;;;;;;;36.30;21.65;;;;;;;3.59;64.98;94801.31;5043929;28;20094;-77
2022/12/24 02:25:38;;;;;;;36.83;21.23;;;;;;;3.57;64.71;94792.81;5043347;28;20530;-78
2022/12/24 02:28:13;;;;;;;37.85;22.45;;;;;;;3.61;65.31;94800.94;5024356;28;20037;-77
2022/12/24 02:30:51;;;;;;;37.53;20.13;;;;;;;3.64;65.86;94802.88;5042325;28;20434;-76
2022/12/24 02:33:35;;;;;;;30.10;19.75;;;;;;;3.68;65.90;94804.41;5002739;28;20435;-76
2022/12/24 02:36:09;;;;;;;34.30;20.02;;;;;;;3.67;65.03;94804.78;5011350;28;20543;-77
2022/12/24 02:38:37;;;;;;;31.45;19.85;;;;;;;3.69;64.69;94802.47;5027386;28;20060;-78
2022/12/24 02:41:12;;;;;;;32.00;18.98;;;;;;;3.66;65.28;94798.56;5040695;28;20033;-76
2022/12/24 02:43:39;;;;;;;36.70;21.35;;;;;;;3.63;64.17;94790.44;5029028;28;20036;-76
2022/12/24 02:46:19;;;;;;;36.95;22.52;;;;;;;3.56;63.05;94791.25;5025565;28;20037;-76
2022/12/24 02:48:46;;;;;;;39.88;22.85;;;;;;;3.55;63.05;94786.19;5024861;28;20499;-78
2022/12/24 02:51:12;;;;;;;41.08;23.83;;;;;;;3.55;62.49;94775.31;5010433;28;20041;-77
2022/12/24 02:53:37;;;;;;;44.22;26.52;;;;;;;3.59;62.54;94786.97;5018112;28;20491;-77
2022/12/24 02:56:21;;;;;;;48.45;28.75;;;;;;;3.52;62.34;94773.41;5041199;28;20021;-77
2022/12/24 02:58:53;;;;;;;;;;;;;;;3.49;62.54;94783.13;5028845;28;20029;-78
2022/12/24 03:01:42;;;;;;;42.90;23.98;;;;;;;3.43;62.13;94787.41;5036196;28;19924;-76
2022/12/24 03:04:10;;;;;;;40.83;24.52;;;;;;;3.37;61.97;94780.84;5043337;28;20412;-77
2022/12/24 03:06:43;;;;;;;52.30;26.63;;;;;;;3.27;61.75;94782.44;5035419;28;20045;-78
2022/12/24 03:09:25;;;;;;;41.97;26.33;;;;;;;3.27;61.36;94781.66;5033948;28;20044;-77
2022/12/24 03:11:56;;;;;;;48.55;27.42;;;;;;;3.24;61.59;94785.16;5027166;28;20127;-76
2022/12/24 03:14:22;;;;;;;66.63;37.33;;;;;;;3.22;61.81;94777.41;5027179;28;20043;-76
2022/12/24 03:16:47;;;;;;;67.53;41.17;;;;;;;3.14;62.36;94778.59;5027730;28;20025;-77
2022/12/24 03:19:13;;;;;;;72.85;39.03;;;;;;;3.10;61.78;94777.84;5021888;28;20060;-78
2022/12/24 03:21:38;;;;;;;59.67;36.65;;;;;;;3.09;60.77;94777.03;5030286;28;20395;-78
2022/12/24 03:24:04;;;;;;;64.88;38.78;;;;;;;3.06;61.42;94780.56;5026178;28;20036;-77
2022/12/24 03:26:30;;;;;;;67.85;39.00;;;;;;;3.02;61.65;94777.06;5028366;28;20035;-78
2022/12/24 03:28:55;;;;;;;70.30;40.05;;;;;;;2.96;62.02;94777.84;5035695;28;20025;-77
2022/12/24 03:31:21;;;;;;;58.97;35.80;;;;;;;2.93;61.75;94774.78;5042886;28;20056;-78
2022/12/24 03:33:46;;;;;;;61.42;37.45;;;;;;;2.94;61.72;94780.97;5043740;28;20029;-77
2022/12/24 03:36:12;;;;;;;60.30;35.45;;;;;;;2.86;61.78;94772.03;5027545;28;20183;-77
2022/12/24 03:38:37;;;;;;;55.03;33.65;;;;;;;2.91;62.44;94785.22;5024000;28;20029;-79
2022/12/24 03:41:03;;;;;;;59.97;33.28;;;;;;;2.89;63.08;94784.09;4996425;28;20017;-78
2022/12/24 03:43:28;;;;;;;54.03;31.95;;;;;;;2.88;62.86;94785.25;5026796;28;20032;-77
2022/12/24 03:45:54;;;;;;;46.95;29.92;;;;;;;2.90;62.07;94791.06;5040638;28;20029;-77
2022/12/24 03:48:19;;;;;;;48.97;29.35;;;;;;;2.86;62.29;94790.28;5028890;28;20380;-77
2022/12/24 03:50:45;;;;;;;49.28;29.73;;;;;;;2.79;62.37;94782.16;5028974;28;20025;-77
2022/12/24 03:53:10;;;;;;;48.50;29.00;;;;;;;2.79;62.61;94790.31;5024922;28;20026;-77
2022/12/24 03:55:37;;;;;;;43.40;27.25;;;;;;;2.77;62.45;94795.34;5027282;28;20037;-77
2022/12/24 03:58:02;;;;;;;47.15;28.25;;;;;;;2.74;62.04;94782.53;5008338;28;20079;-77
2022/12/24 04:00:28;;;;;;;43.13;28.42;;;;;;;2.78;63.80;94796.91;5036246;28;20021;-76
2022/12/24 04:02:53;;;;;;;47.38;27.30;;;;;;;2.80;63.66;94792.63;5030512;28;20071;-76
2022/12/24 04:05:19;;;;;;;43.40;25.52;;;;;;;2.77;63.12;94801.56;5036196;28;20495;-78
2022/12/24 04:07:44;;;;;;;38.22;23.45;;;;;;;2.74;61.94;94804.25;5009243;28;20124;-76
2022/12/24 04:10:10;;;;;;;38.05;23.30;;;;;;;2.76;62.09;94805.44;5044088;28;20531;-77
2022/12/24 04:12:36;;;;;;;44.03;23.35;;;;;;;2.75;62.80;94808.53;5039392;28;20549;-77
2022/12/24 04:15:01;;;;;;;38.70;22.65;;;;;;;2.79;63.87;94812.03;5008701;28;20382;-77
2022/12/24 04:17:26;;;;;;;36.35;24.02;;;;;;;2.75;62.92;94812.00;5039782;28;20025;-77
2022/12/24 04:19:52;;;;;;;41.53;23.00;;;;;;;2.74;62.29;94815.13;5028448;28;20032;-77
2022/12/24 04:22:17;;;;;;;38.83;23.15;;;;;;;2.71;62.18;94816.69;5024871;28;20021;-77
2022/12/24 04:24:43;;;;;;;36.13;22.90;;;;;;;2.75;61.90;94814.72;5027338;28;20099;-76
2022/12/24 04:27:08;;;;;;;37.20;23.63;;;;;;;2.72;62.15;94818.22;5045722;28;20380;-76
2022/12/24 04:29:34;;;;;;;36.28;21.60;;;;;;;2.80;62.77;94824.41;5024543;28;20032;-77
2022/12/24 04:31:59;;;;;;;34.70;21.55;;;;;;;2.78;63.26;94824.81;5030149;28;20037;-78
2022/12/24 04:34:25;;;;;;;37.70;22.08;;;;;;;2.78;64.17;94830.25;5046023;28;20040;-77
2022/12/24 04:36:50;;;;;;;36.55;22.50;;;;;;;2.73;64.41;94830.63;5047050;28;20068;-76
2022/12/24 04:39:16;;;;;;;41.28;24.02;;;;;;;2.71;65.26;94830.25;5043295;28;20022;-76
2022/12/24 04:41:41;;;;;;;40.10;22.70;;;;;;;2.77;64.50;94834.13;5036360;28;20059;-77
2022/12/24 04:44:07;;;;;;;38.88;22.75;;;;;;;2.68;64.31;94820.16;5032046;28;20039;-78
2022/12/24 04:46:34;;;;;;;37.90;22.00;;;;;;;2.71;64.16;94826.78;5039825;28;20029;-76
2022/12/24 04:48:59;;;;;;;35.72;22.30;;;;;;;2.72;64.18;94818.22;5036463;28;20108;-77
2022/12/24 04:51:25;;;;;;;32.03;20.40;;;;;;;2.74;65.30;94821.31;5035319;28;20021;-77
2022/12/24 04:53:51;;;;;;;34.58;21.20;;;;;;;2.71;64.69;94813.97;5040279;28;20037;-77
2022/12/24 04:56:21;;;;;;;38.00;20.85;;;;;;;2.76;65.42;94819.00;5013592;28;20164;-78
2022/12/24 04:58:47;;;;;;;30.20;19.98;;;;;;;2.78;64.30;94816.69;5026382;28;20025;-77
2022/12/24 05:01:14;;;;;;;31.10;21.05;;;;;;;2.80;63.56;94827.13;5017394;28;20096;-78
2022/12/24 05:03:39;;;;;;;30.60;19.45;;;;;;;2.82;63.90;94817.44;5027917;28;20030;-77
2022/12/24 05:06:06;;;;;;;32.00;20.25;;;;;;;2.84;64.11;94817.06;5033805;28;20055;-76
2022/12/24 05:08:33;;;;;;;32.22;19.92;;;;;;;2.82;63.78;94803.88;5043915;28;20029;-77
2022/12/24 05:10:58;;;;;;;33.50;20.20;;;;;;;2.88;62.66;94805.03;5012521;28;20036;-78
2022/12/24 05:13:24;;;;;;;36.38;21.25;;;;;;;2.82;62.34;94797.69;5043801;28;20026;-77
2022/12/24 05:15:50;;;;;;;37.78;21.23;;;;;;;2.76;62.58;94788.38;5026421;28;20390;-78
2022/12/24 05:18:15;;;;;;;35.17;21.73;;;;;;;2.73;61.95;94789.91;5030285;28;20040;-77
2022/12/24 05:20:41;;;;;;;38.25;24.23;;;;;;;2.75;61.92;94784.88;5029612;28;20037;-77
2022/12/24 05:28:34;;;;;;;59.63;32.42;;;;;;;2.64;61.69;94809.31;5043488;28;19974;-78
2022/12/24 05:30:59;;;;;;;58.38;32.63;;;;;;;2.57;61.76;94814.72;5046045;28;20033;-77
2022/12/24 05:33:25;;;;;;;62.78;34.95;;;;;;;2.58;61.84;94807.38;5041462;28;20072;-78
2022/12/24 05:35:51;;;;;;;67.10;37.17;;;;;;;2.53;62.70;94815.94;5038949;28;20025;-77
2022/12/24 05:38:16;;;;;;;68.07;36.53;;;;;;;2.53;62.68;94811.28;5026433;28;20028;-78
2022/12/24 05:40:42;;;;;;;62.80;34.70;;;;;;;2.53;62.78;94808.56;5028621;28;20029;-76
2022/12/24 05:43:07;;;;;;;68.38;34.72;;;;;;;2.54;62.90;94806.63;5026015;28;20029;-77
2022/12/24 05:45:33;;;;;;;61.85;31.45;;;;;;;2.54;63.16;94812.03;5038814;28;20029;-77
2022/12/24 05:47:59;;;;;;;53.45;31.85;;;;;;;2.46;63.38;94800.38;5028239;28;20459;-78
2022/12/24 05:50:24;;;;;;;63.33;31.13;;;;;;;2.49;63.64;94791.50;5038454;28;20448;-76
2022/12/24 05:52:50;;;;;;;51.33;30.13;;;;;;;2.54;63.18;94788.38;5045686;28;20025;-78
2022/12/24 05:55:15;;;;;;;52.80;30.30;;;;;;;2.58;63.13;94794.59;5028913;28;20025;-76
2022/12/24 05:57:41;;;;;;;51.38;30.13;;;;;;;2.60;62.91;94808.53;5030233;28;20025;-77
2022/12/24 06:00:07;;;;;;;52.60;29.80;;;;;;;2.64;62.45;94805.84;5039869;28;20032;-77
2022/12/24 06:02:32;;;;;;;54.00;30.30;;;;;;;2.71;62.26;94805.06;5026683;28;20388;-77
2022/12/24 06:04:58;;;;;;;54.58;31.40;;;;;;;2.74;62.14;94807.75;5033211;28;20021;-77
2022/12/24 06:07:23;;;;;;;57.85;31.88;;;;;;;2.75;62.24;94809.28;5032149;28;20495;-77
2022/12/24 06:09:48;;;;;;;53.40;29.85;;;;;;;2.79;62.28;94812.78;5031634;28;20397;-78
2022/12/24 06:12:14;;;;;;;53.65;32.40;;;;;;;2.82;61.44;94814.75;5040139;28;20102;-77
2022/12/24 06:14:39;;;;;;;55.35;33.25;;;;;;;2.86;61.98;94812.78;5034825;28;20098;-77
2022/12/24 06:17:05;;;;;;;64.35;35.00;;;;;;;2.97;61.68;94825.56;5027846;28;20530;-77
2022/12/24 06:19:30;;;;;;;58.30;35.03;;;;;;;2.93;61.96;94820.94;5029053;28;20021;-78
2022/12/24 06:21:55;;;;;;;64.15;35.70;;;;;;;2.96;61.88;94815.88;5038036;28;20558;-77
2022/12/24 06:24:21;;;;;;;66.28;37.83;;;;;;;3.01;61.82;94815.47;5028570;28;20033;-77
2022/12/24 06:26:47;;;;;;;68.13;38.85;;;;;;;3.03;61.46;94819.34;5035854;28;20525;-78
2022/12/24 06:29:12;;;;;;;74.30;41.40;;;;;;;3.01;61.47;94821.69;5029717;28;20025;-77
2022/12/24 06:31:38;;;;;;;77.13;41.75;;;;;;;3.03;61.30;94816.63;5026391;28;20037;-78
2022/12/24 06:34:03;;;;;;;70.53;40.83;;;;;;;3.05;61.34;94827.91;5044777;28;20041;-77
2022/12/24 06:36:29;;;;;;;74.03;40.90;;;;;;;2.99;61.14;94826.75;5045009;28;20025;-79
2022/12/24 06:38:54;;;;;;;73.22;40.88;;;;;;;3.03;61.55;94840.31;5028127;28;20045;-78
2022/12/24 06:41:22;;;;;;;79.40;42.65;;;;;;;3.04;61.18;94839.94;5027536;28;20036;-77
2022/12/24 06:43:49;;;;;;;79.40;43.35;;;;;;;3.07;61.34;94841.06;5025512;28;20037;-77
2022/12/24 06:46:14;;;;;;;75.25;45.15;;;;;;;3.13;60.82;94845.72;5036576;28;20022;-76
2022/12/24 06:48:40;;;;;;;81.80;46.67;;;;;;;3.16;60.80;94844.19;5022724;28;20032;-76
2022/12/24 06:51:05;;;;;;;81.38;45.70;;;;;;;3.25;60.88;94841.81;5023718;28;20480;-75
2022/12/24 06:53:31;;;;;;;81.78;46.38;;;;;;;3.32;60.57;94849.16;5023993;28;20033;-75
2022/12/24 06:56:01;;;;;;;77.78;44.97;;;;;;;3.43;60.46;94844.47;5035738;28;20539;-76
2022/12/24 06:58:27;;;;;;;75.45;43.53;;;;;;;3.57;60.32;94852.59;5032902;28;20051;-75
2022/12/24 07:00:52;;;;;;;72.10;40.97;;;;;;;3.71;60.15;94851.78;5041525;28;20403;-75
2022/12/24 07:03:18;;;;;;;74.18;40.67;;;;;;;3.78;60.17;94849.00;5043977;28;20094;-76
2022/12/24 07:05:43;;;;;;;70.68;43.60;;;;;;;3.89;59.95;94848.97;5037106;28;20040;-80
2022/12/24 07:08:09;;;;;;;69.68;42.28;;;;;;;4.00;60.07;94850.47;5032388;28;20030;-75
2022/12/24 07:10:34;;;;;;;69.38;43.22;;;;;;;4.12;60.01;94845.75;5025508;28;20025;-75
2022/12/24 07:12:59;;;;;;;82.97;46.75;;;;;;;4.21;59.68;94854.25;5036972;28;20107;-76
2022/12/24 07:15:25;;;;;;;96.50;50.05;;;;;;;4.31;59.45;94852.66;5015646;28;20025;-75
2022/12/24 07:17:50;;;;;;;95.47;51.60;;;;;;;4.34;59.61;94851.84;5039373;28;20036;-76
2022/12/24 07:20:16;;;;;;;90.43;48.10;;;;;;;4.38;59.64;94856.09;5032088;28;20025;-76
2022/12/24 07:22:41;;;;;;;74.82;44.08;;;;;;;4.41;59.72;94851.78;5027169;28;20052;-77
2022/12/24 07:25:07;;;;;;;69.75;42.35;;;;;;;4.47;59.85;94850.19;5038339;28;20029;-76
2022/12/24 07:27:33;;;;;;;60.67;37.72;;;;;;;4.52;59.75;94853.28;5025206;28;20025;-76
2022/12/24 07:29:58;;;;;;;62.30;40.67;;;;;;;4.61;59.51;94854.78;5033495;28;20090;-77
2022/12/24 07:32:24;;;;;;;59.53;36.63;;;;;;;4.66;59.59;94862.53;5039633;28;20037;-76
2022/12/24 07:34:49;;;;;;;58.05;36.92;;;;;;;4.79;59.53;94869.81;5033683;28;20033;-75
2022/12/24 07:37:14;;;;;;;62.42;37.15;;;;;;;4.88;59.26;94863.91;5044432;28;20044;-76
2022/12/24 07:39:40;;;;;;;62.15;37.55;;;;;;;4.94;59.09;94851.41;5046711;28;20029;-74
2022/12/24 07:42:06;;;;;;;67.00;42.83;;;;;;;5.09;59.13;94859.44;5046810;28;20074;-76
2022/12/24 07:44:32;;;;;;;80.32;45.55;;;;;;;5.16;58.74;94854.72;5045572;28;20356;-75
2022/12/24 07:46:58;;;;;;;86.70;47.67;;;;;;;5.39;58.33;94865.03;5045523;28;20600;-75
2022/12/24 07:49:23;;;;;;;107.22;56.28;;;;;;;5.58;57.87;94867.16;5045133;28;20037;-75
2022/12/24 07:51:49;;;;;;;121.47;63.47;;;;;;;5.79;57.28;94879.78;5033852;28;20026;-76
2022/12/24 07:54:14;;;;;;;127.90;66.28;;;;;;;6.01;56.77;94876.81;5051946;28;20088;-76
2022/12/24 07:56:39;;;;;;;129.05;69.72;;;;;;;6.23;56.25;94877.31;5040387;28;20063;-78
2022/12/24 07:59:05;;;;;;;127.85;69.15;;;;;;;6.58;55.18;94882.28;5043488;28;20530;-80
2022/12/24 08:01:32;;;;;;;131.25;75.88;;;;;;;6.82;54.79;94882.34;5047491;28;20025;-82
2022/12/24 08:03:57;;;;;;;142.77;77.72;;;;;;;6.93;54.72;94891.16;5030965;28;20033;-82
2022/12/24 08:06:23;;;;;;;148.88;79.05;;;;;;;6.94;54.91;94892.72;5026718;28;20505;-82
2022/12/24 08:08:48;;;;;;;150.80;85.82;;;;;;;7.06;54.50;94897.59;5013009;28;20041;-84
2022/12/24 08:11:13;;;;;;;167.60;90.55;;;;;;;7.15;54.24;94897.81;5031771;28;20038;-79
2022/12/24 08:13:39;;;;;;;166.35;93.70;;;;;;;7.18;53.89;94894.28;5042094;28;20103;-81
2022/12/24 08:16:05;;;;;;;176.60;101.03;;;;;;;7.22;54.03;94894.19;5029212;28;20025;-83
2022/12/24 08:18:30;;;;;;;210.50;107.43;;;;;;;7.26;54.49;94891.41;5015781;28;20028;-85
2022/12/24 08:20:55;;;;;;;193.82;108.32;;;;;;;7.31;54.19;94885.47;5027758;28;20025;-80
2022/12/24 08:23:21;;;;;;;201.10;109.88;;;;;;;7.30;54.28;94883.94;5046041;28;20021;-81
2022/12/24 08:25:47;;;;;;;197.00;108.30;;;;;;;7.28;54.39;94878.84;5011090;28;20045;-81
2022/12/24 08:28:13;;;;;;;192.43;103.78;;;;;;;7.27;54.17;94882.78;5024414;28;20033;-80
2022/12/24 08:30:38;;;;;;;184.18;100.93;;;;;;;7.24;54.28;94886.38;5047853;28;20079;-79
2022/12/24 08:33:04;;;;;;;188.55;100.15;;;;;;;7.23;54.10;94887.56;5047965;28;20033;-81
2022/12/24 08:35:29;;;;;;;172.63;99.07;;;;;;;7.18;54.22;94875.13;5047344;28;20032;-84
2022/12/24 08:37:55;;;;;;;165.88;93.70;;;;;;;7.25;54.34;94868.00;5030686;28;20033;-83
2022/12/24 08:40:21;;;;;;;154.68;89.53;;;;;;;7.27;54.38;94871.06;5047600;28;20083;-84
2022/12/24 08:42:46;;;;;;;153.35;89.38;;;;;;;7.23;54.96;94878.59;5026185;28;20037;-76
2022/12/24 08:45:12;;;;;;;145.80;86.72;;;;;;;7.21;54.57;94884.44;5038165;28;20029;-81
2022/12/24 08:47:38;;;;;;;142.52;85.00;;;;;;;7.19;54.45;94887.59;5042630;28;20029;-78
2022/12/24 08:50:04;;;;;;;141.55;83.93;;;;;;;7.16;54.43;94882.97;5031171;28;20033;-76
2022/12/24 08:52:29;;;;;;;149.82;84.70;;;;;;;7.16;54.61;94890.38;5017064;28;20043;-77
2022/12/24 08:54:55;;;;;;;148.60;83.10;;;;;;;7.12;54.75;94901.41;5027436;28;20442;-77
2022/12/24 08:57:20;;;;;;;153.02;87.00;;;;;;;7.11;54.89;94891.66;5062485;28;20503;-75
2022/12/24 08:59:46;;;;;;;162.27;87.90;;;;;;;7.04;54.88;94886.28;5030765;28;20029;-76
2022/12/24 09:02:11;;;;;;;155.23;87.63;;;;;;;7.10;55.10;94894.78;5010225;28;20029;-77
2022/12/24 09:04:38;;;;;;;146.90;84.60;;;;;;;7.04;55.28;94880.81;5026584;28;20041;-75
2022/12/24 09:07:04;;;;;;;151.13;86.82;;;;;;;7.14;55.24;94887.31;5027214;28;20217;-85
2022/12/24 09:09:30;;;;;;;157.43;85.25;;;;;;;7.21;55.39;94887.19;5034328;28;20025;-78
2022/12/24 09:11:55;;;;;;;164.40;89.22;;;;;;;7.26;55.22;94883.97;5029395;28;20052;-78
2022/12/24 09:14:21;;;;;;;154.05;87.60;;;;;;;7.28;55.23;94889.78;5029659;28;20455;-84
2022/12/24 09:16:46;;;;;;;153.43;89.50;;;;;;;7.40;55.01;94888.44;5043249;28;20505;-77
2022/12/24 09:19:12;;;;;;;160.82;91.90;;;;;;;7.49;54.84;94882.41;5027166;28;20025;-83
2022/12/24 09:21:37;;;;;;;149.73;88.88;;;;;;;7.48;54.62;94875.41;5032359;28;20393;-77
2022/12/24 09:24:03;;;;;;;131.18;79.10;;;;;;;7.48;54.46;94867.22;5026287;28;20026;-80
2022/12/24 09:26:31;;;;;;;113.45;70.38;;;;;;;7.40;54.76;94863.84;5027086;28;20549;-79
2022/12/24 09:28:58;;;;;;;102.72;62.63;;;;;;;7.29;54.96;94876.91;5042907;28;20029;-81
2022/12/24 09:31:23;;;;;;;89.30;57.60;;;;;;;7.24;54.92;94885.59;5026317;28;20071;-76
2022/12/24 09:33:49;;;;;;;81.65;51.47;;;;;;;7.24;54.79;94878.16;5039095;28;20029;-80
2022/12/24 09:36:15;;;;;;;82.88;49.67;;;;;;;7.08;55.15;94872.56;5032900;28;20038;-77
2022/12/24 09:38:40;;;;;;;79.45;50.28;;;;;;;7.14;54.90;94868.94;5027304;28;20415;-77
2022/12/24 09:41:43;;;;;;;75.05;49.63;;;;;;;7.18;54.70;94866.16;5034228;28;20028;-89
2022/12/24 09:44:23;;;;;;;78.30;46.97;;;;;;;7.27;54.49;94863.66;5048468;28;20415;-77
2022/12/24 09:46:49;;;;;;;75.93;46.50;;;;;;;7.42;54.55;94847.78;5030402;28;20046;-85
2022/12/24 09:49:17;;;;;;;77.13;47.58;;;;;;;7.58;54.29;94860.78;4993375;28;20033;-78
2022/12/24 09:51:46;;;;;;;79.93;49.05;;;;;;;7.70;53.58;94866.41;5035934;28;20048;-78
2022/12/24 09:54:24;;;;;;;76.63;48.55;;;;;;;7.79;53.09;94856.84;5045767;28;20036;-79
2022/12/24 09:56:49;;;;;;;85.40;50.60;;;;;;;7.76;53.16;94854.97;5024648;28;20030;-79
2022/12/24 09:59:45;;;;;;;74.90;49.10;;;;;;;7.80;53.13;94861.13;5020925;28;20431;-82
2022/12/24 10:02:12;;;;;;;71.47;48.22;;;;;;;7.80;53.40;94864.66;5045598;28;20053;-84
2022/12/24 10:04:38;;;;;;;82.20;49.63;;;;;;;7.83;53.32;94880.22;5012247;28;20028;-82
2022/12/24 10:07:24;;;;;;;74.65;49.80;;;;;;;7.80;53.08;94874.81;5035749;28;20044;-83
2022/12/24 10:10:01;;;;;;;75.95;50.65;;;;;;;7.77;52.95;94872.94;5028059;28;20030;-82
2022/12/24 10:13:00;;;;;;;81.63;51.00;;;;;;;7.76;53.10;94861.22;5044980;28;20040;-84
2022/12/24 10:15:49;;;;;;;80.28;51.65;;;;;;;7.86;52.92;94852.03;5033008;28;20452;-83
2022/12/24 10:18:45;;;;;;;76.57;48.53;;;;;;;7.99;52.39;94846.69;5036379;28;20107;-80
2022/12/24 10:21:19;;;;;;;77.85;49.58;;;;;;;8.12;52.02;94842.09;5026391;28;20044;-79
2022/12/24 10:23:44;;;;;;;;;;;;;;;8.34;51.50;94849.88;5010187;28;20123;-84
2022/12/24 10:26:22;;;;;;;78.25;49.35;;;;;;;8.41;51.35;94861.47;5034280;28;20035;-76
2022/12/24 10:28:55;;;;;;;81.10;49.83;;;;;;;8.51;51.13;94851.47;5022964;28;20043;-77
2022/12/24 10:31:26;;;;;;;90.45;55.03;;;;;;;8.64;50.50;94849.59;5009267;28;20018;-76
2022/12/24 10:33:57;;;;;;;92.80;56.58;;;;;;;8.77;50.51;94855.19;5025543;28;20052;-80
2022/12/24 10:36:26;;;;;;;86.57;53.80;;;;;;;8.74;50.60;94850.56;5025040;28;20037;-78
2022/12/24 10:38:51;;;;;;;100.47;55.80;;;;;;;8.78;50.65;94843.03;5025514;28;20111;-79
2022/12/24 10:41:17;;;;;;;82.70;52.33;;;;;;;8.89;50.63;94851.00;5016470;28;20029;-80
2022/12/24 10:43:43;;;;;;;80.63;54.22;;;;;;;8.80;50.37;94831.66;5026193;28;20027;-87
2022/12/24 10:46:34;;;;;;;91.05;53.65;;;;;;;8.95;50.31;94843.81;5009360;28;20041;-83
2022/12/24 10:49:01;;;;;;;92.30;54.33;;;;;;;8.93;50.15;94836.00;5012813;28;20186;-80
2022/12/24 10:51:45;;;;;;;89.20;53.58;;;;;;;8.95;50.35;94843.81;5011149;28;20034;-83
2022/12/24 10:54:18;;;;;;;88.68;54.45;;;;;;;8.97;50.26;94844.16;5009884;28;20083;-84
2022/12/24 10:56:49;;;;;;;85.95;52.10;;;;;;;8.93;50.27;94835.25;5025309;28;20480;-80
2022/12/24 10:59:28;;;;;;;82.32;52.67;;;;;;;8.93;50.60;94837.97;5025072;28;20065;-80
2022/12/24 11:01:56;;;;;;;83.78;51.28;;;;;;;8.87;50.37;94850.66;5008881;28;20049;-79
2022/12/24 11:04:24;;;;;;;85.70;55.65;;;;;;;8.91;50.85;94849.38;5008974;28;20033;-80
2022/12/24 11:07:01;;;;;;;82.03;54.35;;;;;;;8.90;50.68;94845.09;5022953;28;20048;-84
2022/12/24 11:09:32;;;;;;;83.90;52.72;;;;;;;8.90;50.96;94847.84;5008638;28;20033;-85
2022/12/24 11:11:59;;;;;;;86.80;54.58;;;;;;;8.91;50.85;94841.16;5024811;28;20021;-79
2022/12/24 11:14:32;;;;;;;81.97;55.08;;;;;;;8.94;51.10;94828.56;5024418;28;20030;-80
2022/12/24 11:16:58;;;;;;;88.60;54.67;;;;;;;9.00;51.04;94830.38;5007729;28;20037;-84
2022/12/24 11:19:38;;;;;;;87.05;54.00;;;;;;;9.15;50.90;94832.75;5006659;28;20029;-79
2022/12/24 11:22:16;;;;;;;82.57;53.30;;;;;;;9.23;50.81;94840.38;5024935;28;20033;-79
2022/12/24 11:24:41;;;;;;;81.68;51.90;;;;;;;9.42;50.58;94840.69;5009494;28;20025;-79
2022/12/24 11:27:29;;;;;;;81.25;52.58;;;;;;;9.79;49.97;94844.81;5008747;28;20028;-83
2022/12/24 11:30:14;;;;;;;84.05;52.25;;;;;;;10.77;47.67;94842.34;5025749;28;20163;-82
2022/12/24 11:32:42;;;;;;;78.28;50.95;;;;;;;11.60;45.77;94843.22;5025030;28;20793;-82
2022/12/24 11:35:21;;;;;;;83.15;50.03;;;;;;;12.47;43.67;94842.50;5033399;28;20029;-79
2022/12/24 11:37:59;;;;;;;70.53;46.55;;;;;;;12.67;44.08;94839.38;5036466;28;20033;-80